Terminal Aerodrome Forecast
Issued by NWS

Home | Current Version | Previous Version | Text Only | Print | Product List | Glossary On
Versions: 1 2 3 4 5 6 7 8 9 10 11 12 13 14 15
000
FTAK31 PAJN 181100
TAFAKT
TAF
PAKT 181130Z 1812/1912 15011KT P6SM -RA SCT025 OVC040
     FM181400 13015G23KT P6SM -RA BKN025 OVC040 WS020/12035KT
     FM181900 14020G35KT 6SM -RA BR BKN025 OVC040 WS020/12040KT
     FM190000 15015G25KT 3SM -RA BR BKN020 OVC030 WS020/13035KT
     FM190400 15010KT 3SM -RA BKN020 OVC030 WS020/12030KT
      AMD LTD TO CLD VIS AND WIND 1812/1815=

USA.gov is the U.S. government's official web portal to all federal, state and local government web resources and services.